KHBG/HBG METAR and TAF weather

Enter ICAO airport designator
Station Type Date Time Source
KHBG METAR 2019/05/25 14:53 UTC NOAA

KHBG 251453Z AUTO 17003KT 10SM FEW018 28/21 A3019 RMK AO2 SLP218 T02780211 51010


Station Type Date Time Source
KHBG Decoded METAR 2019/05/25 14:53 UTC NOAA

HATTIESBURG CHAIN MUNICIPAL, MS, United States (KHBG) 31-16N 89-15W 44M
May 25, 2019 - 10:53 AM EDT / 2019.05.25 1453 UTC
Wind: from the S (170 degrees) at 3 MPH (3 KT):0
Visibility: 10 mile(s):0
Sky conditions: mostly clear
Temperature: 82.0 F (27.8 C)
Dew Point: 70.0 F (21.1 C)
Relative Humidity: 66%
Pressure (altimeter): 30.19 in. Hg (1022 hPa)
Pressure tendency: 0.03 inches (1.0 hPa) higher than three hours ago
ob: KHBG 251453Z AUTO 17003KT 10SM FEW018 28/21 A3019 RMK AO2 SLP218 T02780211 51010
cycle: 15

Station Type Date Time Source
KHBG TAF 2019/05/25 12:39 UTC NOAA

TAF KHBG 251136Z 2512/2612 00000KT 6SM BR SCT004
FM251300 16004KT P6SM FEW050

Example: see airport list